Terminal Aerodrome Forecast
Issued by NWS

Home | Current Version | Previous Version | Graphics & Text | Print | Product List | Glossary On
Versions: 1 2 3 4 5 6 7 8 9 10 11 12 13
000
FTUS43 KTOP 020520
TAFMHK
TAF
KMHK 020520Z 0206/0306 19008KT P6SM -RA BKN090
     FM021000 20008KT P6SM -RA BKN090 WS020/22040KT
     FM021200 19007KT P6SM SCT100
     FM021700 19013G21KT P6SM FEW120
     FM030000 18007KT P6SM FEW120=

USA.gov is the U.S. government's official web portal to all federal, state and local government web resources and services.